sensor_id;sensor_type;location;lat;lon;timestamp;pressure;altitude;pressure_sealevel;temperature;humidity
6132;BME280;3097;42.692;23.278;2023-04-22T00:01:58;94691.53;;;9.95;85.47
6132;BME280;3097;42.692;23.278;2023-04-22T00:04:24;94700.25;;;9.94;85.82
6132;BME280;3097;42.692;23.278;2023-04-22T00:06:50;94699.25;;;9.84;86.57
6132;BME280;3097;42.692;23.278;2023-04-22T00:09:15;94691.84;;;9.76;86.66
6132;BME280;3097;42.692;23.278;2023-04-22T00:11:41;94697.88;;;9.69;86.80
6132;BME280;3097;42.692;23.278;2023-04-22T00:14:06;94703.56;;;9.71;86.61
6132;BME280;3097;42.692;23.278;2023-04-22T00:16:31;94691.16;;;9.68;86.32
6132;BME280;3097;42.692;23.278;2023-04-22T00:18:57;94701.56;;;9.74;86.25
6132;BME280;3097;42.692;23.278;2023-04-22T00:21:22;94706.03;;;9.66;86.49
6132;BME280;3097;42.692;23.278;2023-04-22T00:23:48;94697.63;;;9.71;86.20
6132;BME280;3097;42.692;23.278;2023-04-22T00:26:13;94695.66;;;9.55;86.85
6132;BME280;3097;42.692;23.278;2023-04-22T00:28:39;94705.63;;;9.51;87.35
6132;BME280;3097;42.692;23.278;2023-04-22T00:31:04;94707.63;;;9.49;87.23
6132;BME280;3097;42.692;23.278;2023-04-22T00:33:30;94706.06;;;9.48;87.33
6132;BME280;3097;42.692;23.278;2023-04-22T00:35:56;94696.81;;;9.29;87.54
6132;BME280;3097;42.692;23.278;2023-04-22T00:38:21;94706.72;;;9.44;87.33
6132;BME280;3097;42.692;23.278;2023-04-22T00:40:47;94708.94;;;9.40;87.50
6132;BME280;3097;42.692;23.278;2023-04-22T00:43:15;94708.88;;;9.28;87.94
6132;BME280;3097;42.692;23.278;2023-04-22T00:45:41;94674.47;;;9.11;88.11
6132;BME280;3097;42.692;23.278;2023-04-22T00:48:07;94690.84;;;9.17;88.44
6132;BME280;3097;42.692;23.278;2023-04-22T00:50:33;94650.59;;;8.92;88.18
6132;BME280;3097;42.692;23.278;2023-04-22T00:52:58;94715.19;;;9.14;89.02
6132;BME280;3097;42.692;23.278;2023-04-22T00:55:24;94708.56;;;9.07;89.13
6132;BME280;3097;42.692;23.278;2023-04-22T00:57:50;94709.97;;;9.03;89.37
6132;BME280;3097;42.692;23.278;2023-04-22T01:00:16;94727.84;;;9.16;88.58
6132;BME280;3097;42.692;23.278;2023-04-22T01:02:44;94716.16;;;9.02;88.51
6132;BME280;3097;42.692;23.278;2023-04-22T01:05:10;94720.06;;;9.04;88.99
6132;BME280;3097;42.692;23.278;2023-04-22T01:07:36;94725.19;;;9.04;88.85
6132;BME280;3097;42.692;23.278;2023-04-22T01:10:02;94724.41;;;9.04;88.66
6132;BME280;3097;42.692;23.278;2023-04-22T01:12:27;94726.84;;;8.99;89.03
6132;BME280;3097;42.692;23.278;2023-04-22T01:14:53;94715.78;;;8.98;88.90
6132;BME280;3097;42.692;23.278;2023-04-22T01:17:19;94725.25;;;8.98;88.89
6132;BME280;3097;42.692;23.278;2023-04-22T01:19:46;94725.72;;;8.95;89.10
6132;BME280;3097;42.692;23.278;2023-04-22T01:22:13;94706.50;;;8.79;89.42
6132;BME280;3097;42.692;23.278;2023-04-22T01:24:39;94720.28;;;8.84;89.97
6132;BME280;3097;42.692;23.278;2023-04-22T01:27:05;94723.97;;;8.88;89.56
6132;BME280;3097;42.692;23.278;2023-04-22T01:29:31;94719.91;;;8.81;89.84
6132;BME280;3097;42.692;23.278;2023-04-22T01:31:56;94718.31;;;8.80;89.98
6132;BME280;3097;42.692;23.278;2023-04-22T01:34:22;94717.06;;;8.89;89.51
6132;BME280;3097;42.692;23.278;2023-04-22T01:36:48;94725.41;;;8.84;89.81
6132;BME280;3097;42.692;23.278;2023-04-22T01:39:14;94723.84;;;8.83;89.90
6132;BME280;3097;42.692;23.278;2023-04-22T01:41:40;94717.34;;;8.81;89.81
6132;BME280;3097;42.692;23.278;2023-04-22T01:44:06;94716.41;;;8.75;89.84
6132;BME280;3097;42.692;23.278;2023-04-22T01:46:32;94720.69;;;8.81;89.73
6132;BME280;3097;42.692;23.278;2023-04-22T01:48:57;94710.63;;;8.80;89.48
6132;BME280;3097;42.692;23.278;2023-04-22T01:51:23;94714.13;;;8.85;89.35
6132;BME280;3097;42.692;23.278;2023-04-22T01:53:49;94717.06;;;8.89;89.15
6132;BME280;3097;42.692;23.278;2023-04-22T01:56:14;94708.13;;;8.73;89.42
6132;BME280;3097;42.692;23.278;2023-04-22T01:58:40;94713.94;;;8.87;89.23
6132;BME280;3097;42.692;23.278;2023-04-22T02:03:41;94716.63;;;8.92;88.82
6132;BME280;3097;42.692;23.278;2023-04-22T02:06:06;94705.34;;;8.75;89.30
6132;BME280;3097;42.692;23.278;2023-04-22T02:08:32;94713.50;;;8.72;89.87
6132;BME280;3097;42.692;23.278;2023-04-22T02:10:57;94669.88;;;8.47;89.88
6132;BME280;3097;42.692;23.278;2023-04-22T02:13:25;94710.84;;;8.78;89.54
6132;BME280;3097;42.692;23.278;2023-04-22T02:15:50;94700.13;;;8.63;89.66
6132;BME280;3097;42.692;23.278;2023-04-22T02:18:16;94708.63;;;8.64;90.04
6132;BME280;3097;42.692;23.278;2023-04-22T02:20:42;94713.13;;;8.68;89.92
6132;BME280;3097;42.692;23.278;2023-04-22T02:23:08;94715.09;;;8.66;90.60
6132;BME280;3097;42.692;23.278;2023-04-22T02:25:33;94661.44;;;8.40;90.40
6132;BME280;3097;42.692;23.278;2023-04-22T02:27:59;94714.41;;;8.77;90.54
6132;BME280;3097;42.692;23.278;2023-04-22T02:30:24;94719.81;;;8.87;89.86
6132;BME280;3097;42.692;23.278;2023-04-22T02:32:49;94719.28;;;8.85;89.57
6132;BME280;3097;42.692;23.278;2023-04-22T02:35:15;94700.06;;;8.70;90.30
6132;BME280;3097;42.692;23.278;2023-04-22T02:37:40;94720.84;;;8.86;90.17
6132;BME280;3097;42.692;23.278;2023-04-22T02:40:06;94694.28;;;8.74;90.37
6132;BME280;3097;42.692;23.278;2023-04-22T02:42:32;94695.84;;;8.75;90.42
6132;BME280;3097;42.692;23.278;2023-04-22T02:44:58;94722.25;;;8.82;90.23
6132;BME280;3097;42.692;23.278;2023-04-22T02:47:23;94722.34;;;8.76;90.18
6132;BME280;3097;42.692;23.278;2023-04-22T02:49:49;94699.63;;;8.54;90.45
6132;BME280;3097;42.692;23.278;2023-04-22T02:52:14;94699.41;;;8.56;90.08
6132;BME280;3097;42.692;23.278;2023-04-22T02:54:41;94724.69;;;8.77;90.06
6132;BME280;3097;42.692;23.278;2023-04-22T02:57:06;94737.38;;;8.72;90.46
6132;BME280;3097;42.692;23.278;2023-04-22T02:59:31;94682.31;;;8.43;90.39
6132;BME280;3097;42.692;23.278;2023-04-22T03:01:58;94729.47;;;8.74;90.01
6132;BME280;3097;42.692;23.278;2023-04-22T03:04:23;94726.56;;;8.70;89.82
6132;BME280;3097;42.692;23.278;2023-04-22T03:06:49;94726.91;;;8.74;89.58
6132;BME280;3097;42.692;23.278;2023-04-22T03:09:15;94727.88;;;8.73;89.63
6132;BME280;3097;42.692;23.278;2023-04-22T03:11:41;94738.25;;;8.84;89.24
6132;BME280;3097;42.692;23.278;2023-04-22T03:14:06;94717.97;;;8.76;89.01
6132;BME280;3097;42.692;23.278;2023-04-22T03:16:32;94731.41;;;8.78;89.29
6132;BME280;3097;42.692;23.278;2023-04-22T03:18:57;94732.19;;;8.79;89.77
6132;BME280;3097;42.692;23.278;2023-04-22T03:21:23;94731.34;;;8.85;89.43
6132;BME280;3097;42.692;23.278;2023-04-22T03:23:48;94733.47;;;8.88;89.09
6132;BME280;3097;42.692;23.278;2023-04-22T03:26:13;94738.47;;;8.83;88.92
6132;BME280;3097;42.692;23.278;2023-04-22T03:28:39;94733.41;;;8.76;89.02
6132;BME280;3097;42.692;23.278;2023-04-22T03:31:05;94734.66;;;8.67;89.65
6132;BME280;3097;42.692;23.278;2023-04-22T03:33:30;94740.25;;;8.64;89.65
6132;BME280;3097;42.692;23.278;2023-04-22T03:35:56;94737.88;;;8.63;89.49
6132;BME280;3097;42.692;23.278;2023-04-22T03:38:21;94743.88;;;8.57;89.73
6132;BME280;3097;42.692;23.278;2023-04-22T03:40:46;94746.13;;;8.46;90.07
6132;BME280;3097;42.692;23.278;2023-04-22T03:43:12;94754.63;;;8.47;90.50
6132;BME280;3097;42.692;23.278;2023-04-22T03:45:37;94757.06;;;8.35;90.98
6132;BME280;3097;42.692;23.278;2023-04-22T03:48:03;94726.78;;;8.19;91.03
6132;BME280;3097;42.692;23.278;2023-04-22T03:50:30;94750.41;;;8.34;91.16
6132;BME280;3097;42.692;23.278;2023-04-22T03:52:55;94732.47;;;8.21;91.12
6132;BME280;3097;42.692;23.278;2023-04-22T03:55:20;94753.47;;;8.43;90.69
6132;BME280;3097;42.692;23.278;2023-04-22T03:57:46;94758.19;;;8.46;90.63
6132;BME280;3097;42.692;23.278;2023-04-22T04:00:12;94766.16;;;8.38;91.51
6132;BME280;3097;42.692;23.278;2023-04-22T04:02:37;94769.72;;;8.37;91.80
6132;BME280;3097;42.692;23.278;2023-04-22T04:05:02;94744.47;;;8.34;91.38
6132;BME280;3097;42.692;23.278;2023-04-22T04:07:29;94761.69;;;8.51;91.42
6132;BME280;3097;42.692;23.278;2023-04-22T04:09:54;94770.03;;;8.47;92.34
6132;BME280;3097;42.692;23.278;2023-04-22T04:12:20;94767.94;;;8.62;91.67
6132;BME280;3097;42.692;23.278;2023-04-22T04:14:45;94744.22;;;8.60;91.08
6132;BME280;3097;42.692;23.278;2023-04-22T04:17:11;94764.97;;;8.83;90.98
6132;BME280;3097;42.692;23.278;2023-04-22T04:19:38;94770.16;;;8.77;91.68
6132;BME280;3097;42.692;23.278;2023-04-22T04:22:04;94776.03;;;8.84;91.89
6132;BME280;3097;42.692;23.278;2023-04-22T04:24:29;94779.47;;;8.96;90.94
6132;BME280;3097;42.692;23.278;2023-04-22T04:26:55;94769.09;;;9.03;90.85
6132;BME280;3097;42.692;23.278;2023-04-22T04:29:22;94772.56;;;9.15;90.54
6132;BME280;3097;42.692;23.278;2023-04-22T04:31:48;94780.00;;;9.23;90.00
6132;BME280;3097;42.692;23.278;2023-04-22T04:34:13;94772.41;;;9.28;89.57
6132;BME280;3097;42.692;23.278;2023-04-22T04:36:39;94784.09;;;9.42;89.17
6132;BME280;3097;42.692;23.278;2023-04-22T04:39:05;94781.25;;;9.50;89.16
6132;BME280;3097;42.692;23.278;2023-04-22T04:41:30;94784.22;;;9.65;88.67
6132;BME280;3097;42.692;23.278;2023-04-22T04:43:58;94786.28;;;10.05;86.70
6132;BME280;3097;42.692;23.278;2023-04-22T04:46:26;94793.69;;;10.55;84.27
6132;BME280;3097;42.692;23.278;2023-04-22T04:48:56;94785.38;;;11.22;82.07
6132;BME280;3097;42.692;23.278;2023-04-22T04:51:22;94776.47;;;11.93;77.05
6132;BME280;3097;42.692;23.278;2023-04-22T04:53:48;94799.78;;;12.77;73.67
6132;BME280;3097;42.692;23.278;2023-04-22T04:56:13;94801.75;;;13.64;69.52
6132;BME280;3097;42.692;23.278;2023-04-22T04:58:39;94798.69;;;14.42;67.24
6132;BME280;3097;42.692;23.278;2023-04-22T05:01:04;94803.66;;;15.18;64.08
6132;BME280;3097;42.692;23.278;2023-04-22T05:03:30;94798.28;;;15.92;61.17
6132;BME280;3097;42.692;23.278;2023-04-22T05:05:55;94809.31;;;16.54;58.39
6132;BME280;3097;42.692;23.278;2023-04-22T05:08:21;94790.09;;;16.81;56.81
6132;BME280;3097;42.692;23.278;2023-04-22T05:10:46;94806.94;;;17.29;55.36
6132;BME280;3097;42.692;23.278;2023-04-22T05:13:12;94773.25;;;17.53;54.10
6132;BME280;3097;42.692;23.278;2023-04-22T05:15:37;94759.84;;;17.85;52.32
6132;BME280;3097;42.692;23.278;2023-04-22T05:18:03;94810.31;;;18.53;52.23
6132;BME280;3097;42.692;23.278;2023-04-22T05:20:29;94809.72;;;18.95;50.37
6132;BME280;3097;42.692;23.278;2023-04-22T05:22:55;94776.84;;;19.18;50.94
6132;BME280;3097;42.692;23.278;2023-04-22T05:25:20;94807.91;;;19.96;49.19
6132;BME280;3097;42.692;23.278;2023-04-22T05:27:46;94808.44;;;20.54;47.71
6132;BME280;3097;42.692;23.278;2023-04-22T05:30:11;94810.88;;;20.83;47.86
6132;BME280;3097;42.692;23.278;2023-04-22T05:32:37;94766.28;;;20.69;47.68
6132;BME280;3097;42.692;23.278;2023-04-22T05:35:03;94789.19;;;21.56;46.05
6132;BME280;3097;42.692;23.278;2023-04-22T05:37:28;94794.22;;;21.80;44.85
6132;BME280;3097;42.692;23.278;2023-04-22T05:39:54;94792.78;;;22.01;43.04
6132;BME280;3097;42.692;23.278;2023-04-22T05:42:20;94808.06;;;22.35;44.28
6132;BME280;3097;42.692;23.278;2023-04-22T05:44:45;94810.34;;;22.72;44.58
6132;BME280;3097;42.692;23.278;2023-04-22T05:47:11;94776.56;;;23.41;42.46
6132;BME280;3097;42.692;23.278;2023-04-22T05:49:36;94799.50;;;23.80;39.95
6132;BME280;3097;42.692;23.278;2023-04-22T05:52:02;94802.13;;;23.80;39.84
6132;BME280;3097;42.692;23.278;2023-04-22T05:54:27;94808.47;;;24.27;40.18
6132;BME280;3097;42.692;23.278;2023-04-22T05:56:54;94791.88;;;24.96;39.23
6132;BME280;3097;42.692;23.278;2023-04-22T05:59:20;94750.16;;;24.72;37.63
6132;BME280;3097;42.692;23.278;2023-04-22T06:01:45;94801.78;;;25.54;37.98
6132;BME280;3097;42.692;23.278;2023-04-22T06:04:11;94801.06;;;26.04;37.60
6132;BME280;3097;42.692;23.278;2023-04-22T06:06:36;94792.38;;;26.24;35.88
6132;BME280;3097;42.692;23.278;2023-04-22T06:09:02;94774.72;;;26.45;36.61
6132;BME280;3097;42.692;23.278;2023-04-22T06:11:27;94795.78;;;26.75;35.34
6132;BME280;3097;42.692;23.278;2023-04-22T06:13:53;94768.38;;;26.91;34.94
6132;BME280;3097;42.692;23.278;2023-04-22T06:16:18;94792.25;;;27.85;33.43
6132;BME280;3097;42.692;23.278;2023-04-22T06:18:44;94761.75;;;28.16;31.66
6132;BME280;3097;42.692;23.278;2023-04-22T06:21:12;94772.97;;;28.49;31.54
6132;BME280;3097;42.692;23.278;2023-04-22T06:23:38;94765.72;;;27.97;31.98
6132;BME280;3097;42.692;23.278;2023-04-22T06:26:06;94773.47;;;28.02;31.13
6132;BME280;3097;42.692;23.278;2023-04-22T06:28:32;94789.06;;;28.16;32.39
6132;BME280;3097;42.692;23.278;2023-04-22T06:30:57;94792.72;;;28.92;32.02
6132;BME280;3097;42.692;23.278;2023-04-22T06:33:23;94777.63;;;28.68;31.20
6132;BME280;3097;42.692;23.278;2023-04-22T06:35:48;94781.66;;;28.90;31.57
6132;BME280;3097;42.692;23.278;2023-04-22T06:38:14;94782.72;;;29.01;31.55
6132;BME280;3097;42.692;23.278;2023-04-22T06:40:39;94785.25;;;29.56;31.85
6132;BME280;3097;42.692;23.278;2023-04-22T06:43:04;94792.81;;;29.54;30.23
6132;BME280;3097;42.692;23.278;2023-04-22T06:45:30;94776.31;;;29.02;30.29
6132;BME280;3097;42.692;23.278;2023-04-22T06:47:55;94790.69;;;29.32;29.30
6132;BME280;3097;42.692;23.278;2023-04-22T06:50:21;94786.47;;;28.72;31.89
6132;BME280;3097;42.692;23.278;2023-04-22T06:52:46;94789.78;;;28.41;31.20
6132;BME280;3097;42.692;23.278;2023-04-22T06:55:12;94766.81;;;28.33;31.07
6132;BME280;3097;42.692;23.278;2023-04-22T06:57:37;94796.53;;;28.78;30.56
6132;BME280;3097;42.692;23.278;2023-04-22T07:00:04;94776.56;;;27.92;31.25
6132;BME280;3097;42.692;23.278;2023-04-22T07:02:30;94805.88;;;27.39;31.60
6132;BME280;3097;42.692;23.278;2023-04-22T07:04:56;94798.84;;;26.98;33.15
6132;BME280;3097;42.692;23.278;2023-04-22T07:07:21;94801.31;;;27.72;33.71
6132;BME280;3097;42.692;23.278;2023-04-22T07:09:47;94801.97;;;28.18;34.13
6132;BME280;3097;42.692;23.278;2023-04-22T07:12:12;94799.16;;;27.29;33.10
6132;BME280;3097;42.692;23.278;2023-04-22T07:14:44;94793.06;;;26.63;34.60
6132;BME280;3097;42.692;23.278;2023-04-22T07:17:10;94809.16;;;26.70;35.78
6132;BME280;3097;42.692;23.278;2023-04-22T07:19:36;94801.72;;;26.30;34.99
6132;BME280;3097;42.692;23.278;2023-04-22T07:22:01;94808.69;;;26.05;35.69
6132;BME280;3097;42.692;23.278;2023-04-22T07:24:31;94802.09;;;25.61;37.10
6132;BME280;3097;42.692;23.278;2023-04-22T07:26:57;94804.41;;;25.54;39.35
6132;BME280;3097;42.692;23.278;2023-04-22T07:29:22;94799.13;;;25.54;35.57
6132;BME280;3097;42.692;23.278;2023-04-22T07:31:48;94804.97;;;25.22;37.00
6132;BME280;3097;42.692;23.278;2023-04-22T07:34:14;94803.97;;;24.54;36.94
6132;BME280;3097;42.692;23.278;2023-04-22T07:36:40;94811.31;;;24.09;37.71
6132;BME280;3097;42.692;23.278;2023-04-22T07:39:05;94810.78;;;23.10;38.82
6132;BME280;3097;42.692;23.278;2023-04-22T07:41:32;94805.81;;;22.64;40.26
6132;BME280;3097;42.692;23.278;2023-04-22T07:43:57;94811.31;;;22.54;41.43
6132;BME280;3097;42.692;23.278;2023-04-22T07:46:23;94809.50;;;22.77;43.21
6132;BME280;3097;42.692;23.278;2023-04-22T07:48:48;94809.31;;;23.27;40.23
6132;BME280;3097;42.692;23.278;2023-04-22T07:51:14;94806.78;;;23.13;38.66
6132;BME280;3097;42.692;23.278;2023-04-22T07:53:39;94807.53;;;22.83;39.99
6132;BME280;3097;42.692;23.278;2023-04-22T07:56:04;94806.69;;;22.73;41.29
6132;BME280;3097;42.692;23.278;2023-04-22T07:58:30;94795.75;;;22.80;40.91
6132;BME280;3097;42.692;23.278;2023-04-22T08:00:56;94801.28;;;23.32;41.63
6132;BME280;3097;42.692;23.278;2023-04-22T08:03:22;94796.00;;;23.54;41.24
6132;BME280;3097;42.692;23.278;2023-04-22T08:05:47;94796.66;;;23.68;41.98
6132;BME280;3097;42.692;23.278;2023-04-22T08:08:13;94791.59;;;23.80;38.49
6132;BME280;3097;42.692;23.278;2023-04-22T08:10:38;94788.50;;;23.87;39.19
6132;BME280;3097;42.692;23.278;2023-04-22T08:13:03;94789.78;;;23.98;39.28
6132;BME280;3097;42.692;23.278;2023-04-22T08:15:29;94786.69;;;24.13;38.62
6132;BME280;3097;42.692;23.278;2023-04-22T08:17:54;94782.66;;;23.90;38.44
6132;BME280;3097;42.692;23.278;2023-04-22T08:20:20;94777.19;;;23.78;37.32
6132;BME280;3097;42.692;23.278;2023-04-22T08:22:45;94784.91;;;23.66;37.71
6132;BME280;3097;42.692;23.278;2023-04-22T08:25:11;94788.19;;;23.80;37.29
6132;BME280;3097;42.692;23.278;2023-04-22T08:27:36;94785.97;;;23.65;38.33
6132;BME280;3097;42.692;23.278;2023-04-22T08:30:03;94735.63;;;23.49;39.12
6132;BME280;3097;42.692;23.278;2023-04-22T08:32:29;94779.19;;;23.72;39.53
6132;BME280;3097;42.692;23.278;2023-04-22T08:34:54;94782.38;;;23.61;38.61
6132;BME280;3097;42.692;23.278;2023-04-22T08:37:20;94778.41;;;23.72;37.61
6132;BME280;3097;42.692;23.278;2023-04-22T08:39:45;94770.00;;;23.52;37.25
6132;BME280;3097;42.692;23.278;2023-04-22T08:42:11;94743.81;;;23.16;37.95
6132;BME280;3097;42.692;23.278;2023-04-22T08:44:38;94777.13;;;23.21;36.55
6132;BME280;3097;42.692;23.278;2023-04-22T08:47:04;94768.09;;;22.83;37.72
6132;BME280;3097;42.692;23.278;2023-04-22T08:49:30;94763.63;;;22.83;38.82
6132;BME280;3097;42.692;23.278;2023-04-22T08:51:55;94737.19;;;22.88;38.60
6132;BME280;3097;42.692;23.278;2023-04-22T08:54:22;94763.44;;;23.10;40.50
6132;BME280;3097;42.692;23.278;2023-04-22T08:56:49;94756.84;;;23.22;39.26
6132;BME280;3097;42.692;23.278;2023-04-22T08:59:15;94760.28;;;23.31;40.92
6132;BME280;3097;42.692;23.278;2023-04-22T09:01:41;94750.06;;;23.29;41.48
6132;BME280;3097;42.692;23.278;2023-04-22T09:04:09;94752.03;;;23.15;38.97
6132;BME280;3097;42.692;23.278;2023-04-22T09:06:36;94749.41;;;23.15;39.26
6132;BME280;3097;42.692;23.278;2023-04-22T09:09:03;94759.09;;;23.06;41.15
6132;BME280;3097;42.692;23.278;2023-04-22T09:11:30;94752.53;;;23.26;39.08
6132;BME280;3097;42.692;23.278;2023-04-22T09:13:56;94741.59;;;23.01;39.13
6132;BME280;3097;42.692;23.278;2023-04-22T09:16:21;94730.66;;;22.63;39.27
6132;BME280;3097;42.692;23.278;2023-04-22T09:18:47;94748.84;;;22.29;39.22
6132;BME280;3097;42.692;23.278;2023-04-22T09:21:12;94755.28;;;22.23;40.55
6132;BME280;3097;42.692;23.278;2023-04-22T09:23:49;94755.34;;;22.31;40.84
6132;BME280;3097;42.692;23.278;2023-04-22T09:26:18;94739.22;;;22.24;38.84
6132;BME280;3097;42.692;23.278;2023-04-22T09:28:55;94749.03;;;21.69;42.31
6132;BME280;3097;42.692;23.278;2023-04-22T09:31:23;94680.56;;;21.02;42.02
6132;BME280;3097;42.692;23.278;2023-04-22T09:33:55;94735.38;;;20.85;41.25
6132;BME280;3097;42.692;23.278;2023-04-22T09:36:28;94733.13;;;20.65;42.68
6132;BME280;3097;42.692;23.278;2023-04-22T09:38:58;94730.38;;;20.56;43.66
6132;BME280;3097;42.692;23.278;2023-04-22T09:41:32;94722.72;;;20.60;41.33
6132;BME280;3097;42.692;23.278;2023-04-22T09:43:59;94720.56;;;20.62;43.28
6132;BME280;3097;42.692;23.278;2023-04-22T09:46:25;94728.59;;;20.84;45.39
6132;BME280;3097;42.692;23.278;2023-04-22T09:48:53;94726.00;;;21.11;42.58
6132;BME280;3097;42.692;23.278;2023-04-22T09:51:18;94723.59;;;21.29;43.81
6132;BME280;3097;42.692;23.278;2023-04-22T09:53:45;94721.28;;;21.54;41.31
6132;BME280;3097;42.692;23.278;2023-04-22T09:56:20;94719.31;;;21.60;43.48
6132;BME280;3097;42.692;23.278;2023-04-22T09:58:51;94696.53;;;21.19;41.34
6132;BME280;3097;42.692;23.278;2023-04-22T10:01:16;94724.09;;;20.71;39.39
6132;BME280;3097;42.692;23.278;2023-04-22T10:03:43;94733.44;;;20.26;40.52
6132;BME280;3097;42.692;23.278;2023-04-22T10:06:09;94730.25;;;19.73;41.90
6132;BME280;3097;42.692;23.278;2023-04-22T10:08:35;94712.22;;;19.52;41.37
6132;BME280;3097;42.692;23.278;2023-04-22T10:11:00;94718.53;;;19.22;41.49
6132;BME280;3097;42.692;23.278;2023-04-22T10:13:26;94726.03;;;19.29;43.24
6132;BME280;3097;42.692;23.278;2023-04-22T10:15:52;94705.72;;;19.45;43.08
6132;BME280;3097;42.692;23.278;2023-04-22T10:18:24;94701.75;;;19.52;43.46
6132;BME280;3097;42.692;23.278;2023-04-22T10:20:52;94711.06;;;19.58;42.30
6132;BME280;3097;42.692;23.278;2023-04-22T10:23:20;94715.03;;;19.08;38.42
6132;BME280;3097;42.692;23.278;2023-04-22T10:25:51;94714.13;;;19.18;39.35
6132;BME280;3097;42.692;23.278;2023-04-22T10:28:19;94702.41;;;19.39;42.61
6132;BME280;3097;42.692;23.278;2023-04-22T10:30:45;94704.13;;;19.25;39.53
6132;BME280;3097;42.692;23.278;2023-04-22T10:41:32;94647.03;;;18.37;40.69
6132;BME280;3097;42.692;23.278;2023-04-22T10:44:00;94697.59;;;18.46;40.73
6132;BME280;3097;42.692;23.278;2023-04-22T10:49:19;94695.56;;;18.38;40.67
6132;BME280;3097;42.692;23.278;2023-04-22T10:57:18;94692.34;;;17.78;41.87
6132;BME280;3097;42.692;23.278;2023-04-22T10:59:54;94657.41;;;17.79;41.51
6132;BME280;3097;42.692;23.278;2023-04-22T11:02:22;94680.28;;;17.87;41.49
6132;BME280;3097;42.692;23.278;2023-04-22T11:04:48;94665.94;;;17.40;42.22
6132;BME280;3097;42.692;23.278;2023-04-22T11:15:00;94702.09;;;17.57;41.63
6132;BME280;3097;42.692;23.278;2023-04-22T11:17:26;94692.50;;;17.37;41.75
6132;BME280;3097;42.692;23.278;2023-04-22T11:19:51;94694.63;;;17.35;41.64
6132;BME280;3097;42.692;23.278;2023-04-22T11:22:22;94705.88;;;17.26;43.43
6132;BME280;3097;42.692;23.278;2023-04-22T11:24:58;94712.38;;;17.23;43.39
6132;BME280;3097;42.692;23.278;2023-04-22T11:27:24;94716.56;;;17.19;44.76
6132;BME280;3097;42.692;23.278;2023-04-22T11:30:03;94739.00;;;17.05;47.06
6132;BME280;3097;42.692;23.278;2023-04-22T11:32:30;94734.31;;;17.02;47.21
6132;BME280;3097;42.692;23.278;2023-04-22T11:34:56;94734.34;;;16.97;47.82
6132;BME280;3097;42.692;23.278;2023-04-22T11:37:22;94738.22;;;17.05;48.59
6132;BME280;3097;42.692;23.278;2023-04-22T11:39:47;94744.75;;;16.87;48.62
6132;BME280;3097;42.692;23.278;2023-04-22T11:42:15;94747.13;;;16.88;48.73
6132;BME280;3097;42.692;23.278;2023-04-22T11:44:44;94742.66;;;16.99;47.98
6132;BME280;3097;42.692;23.278;2023-04-22T11:47:10;94737.25;;;16.75;48.72
6132;BME280;3097;42.692;23.278;2023-04-22T11:49:37;94759.88;;;16.70;47.98
6132;BME280;3097;42.692;23.278;2023-04-22T11:52:02;94736.19;;;16.51;48.86
6132;BME280;3097;42.692;23.278;2023-04-22T11:54:35;94746.34;;;16.42;50.56
6132;BME280;3097;42.692;23.278;2023-04-22T11:57:05;94746.34;;;16.37;50.50
6132;BME280;3097;42.692;23.278;2023-04-22T11:59:32;94742.44;;;16.35;50.79
6132;BME280;3097;42.692;23.278;2023-04-22T12:01:58;94746.09;;;16.23;51.89
6132;BME280;3097;42.692;23.278;2023-04-22T12:04:23;94755.44;;;16.40;51.38
6132;BME280;3097;42.692;23.278;2023-04-22T12:06:50;94768.44;;;16.19;52.11
6132;BME280;3097;42.692;23.278;2023-04-22T12:09:16;94757.78;;;16.16;53.76
6132;BME280;3097;42.692;23.278;2023-04-22T12:11:44;94768.44;;;16.24;54.38
6132;BME280;3097;42.692;23.278;2023-04-22T12:14:10;94774.19;;;16.37;53.70
6132;BME280;3097;42.692;23.278;2023-04-22T12:16:42;94785.81;;;16.04;54.06
6132;BME280;3097;42.692;23.278;2023-04-22T12:19:07;94760.56;;;15.89;54.60
6132;BME280;3097;42.692;23.278;2023-04-22T12:21:34;94764.00;;;16.05;54.86
6132;BME280;3097;42.692;23.278;2023-04-22T12:24:07;94758.53;;;16.16;55.03
6132;BME280;3097;42.692;23.278;2023-04-22T12:26:34;94764.53;;;16.32;55.82
6132;BME280;3097;42.692;23.278;2023-04-22T12:29:02;94765.84;;;16.35;55.23
6132;BME280;3097;42.692;23.278;2023-04-22T12:31:27;94773.91;;;16.28;54.96
6132;BME280;3097;42.692;23.278;2023-04-22T12:33:53;94754.41;;;16.36;54.73
6132;BME280;3097;42.692;23.278;2023-04-22T12:36:19;94729.16;;;16.21;54.38
6132;BME280;3097;42.692;23.278;2023-04-22T12:38:45;94761.94;;;16.32;54.23
6132;BME280;3097;42.692;23.278;2023-04-22T12:41:11;94691.69;;;15.76;55.57
6132;BME280;3097;42.692;23.278;2023-04-22T12:43:36;94762.41;;;16.09;56.41
6132;BME280;3097;42.692;23.278;2023-04-22T12:46:04;94757.25;;;16.24;56.19
6132;BME280;3097;42.692;23.278;2023-04-22T12:48:30;94736.94;;;16.01;53.15
6132;BME280;3097;42.692;23.278;2023-04-22T12:50:56;94758.31;;;16.28;52.44
6132;BME280;3097;42.692;23.278;2023-04-22T12:53:23;94761.94;;;16.27;51.97
6132;BME280;3097;42.692;23.278;2023-04-22T12:55:48;94759.88;;;16.34;52.58
6132;BME280;3097;42.692;23.278;2023-04-22T12:58:14;94745.81;;;16.50;53.19
6132;BME280;3097;42.692;23.278;2023-04-22T13:00:40;94752.31;;;16.58;53.01
6132;BME280;3097;42.692;23.278;2023-04-22T13:03:05;94754.13;;;16.27;53.44
6132;BME280;3097;42.692;23.278;2023-04-22T13:05:31;94715.09;;;15.97;53.44
6132;BME280;3097;42.692;23.278;2023-04-22T13:07:57;94738.00;;;16.25;53.18
6132;BME280;3097;42.692;23.278;2023-04-22T13:10:23;94739.81;;;16.14;52.99
6132;BME280;3097;42.692;23.278;2023-04-22T13:12:48;94734.63;;;16.24;52.10
6132;BME280;3097;42.692;23.278;2023-04-22T13:15:14;94753.59;;;16.25;51.66
6132;BME280;3097;42.692;23.278;2023-04-22T13:17:41;94747.38;;;16.16;50.94
6132;BME280;3097;42.692;23.278;2023-04-22T13:20:06;94742.13;;;15.91;51.23
6132;BME280;3097;42.692;23.278;2023-04-22T13:22:33;94749.41;;;16.04;50.54
6132;BME280;3097;42.692;23.278;2023-04-22T13:25:00;94740.09;;;16.23;50.54
6132;BME280;3097;42.692;23.278;2023-04-22T13:27:25;94729.69;;;16.28;49.55
6132;BME280;3097;42.692;23.278;2023-04-22T13:29:51;94684.94;;;16.06;48.87
6132;BME280;3097;42.692;23.278;2023-04-22T13:32:16;94720.31;;;16.32;49.03
6132;BME280;3097;42.692;23.278;2023-04-22T13:34:44;94742.16;;;16.06;49.06
6132;BME280;3097;42.692;23.278;2023-04-22T13:37:10;94748.66;;;16.18;49.29